createdAt,value
2022-09-30T00:01:45.528Z,99.90
2022-09-30T00:04:19.406Z,99.90
2022-09-30T00:06:48.718Z,99.90
2022-09-30T00:09:17.396Z,99.90
2022-09-30T00:11:46.723Z,99.90
2022-09-30T00:14:18.740Z,99.90
2022-09-30T00:16:46.985Z,99.90
2022-09-30T00:19:16.606Z,99.90
2022-09-30T00:21:44.822Z,99.90
2022-09-30T00:24:13.070Z,99.90
2022-09-30T00:26:41.037Z,99.90
2022-09-30T00:29:10.039Z,99.90
2022-09-30T00:31:38.161Z,99.90
2022-09-30T00:34:11.214Z,99.90
2022-09-30T00:36:44.491Z,99.90
2022-09-30T00:39:16.394Z,99.90
2022-09-30T00:41:45.254Z,99.90
2022-09-30T00:44:50.691Z,99.90
2022-09-30T00:47:45.591Z,99.90
2022-09-30T00:50:22.031Z,99.90
2022-09-30T00:52:57.821Z,99.90
2022-09-30T00:55:34.496Z,99.90
2022-09-30T00:58:05.298Z,99.90
2022-09-30T01:00:33.295Z,99.90
2022-09-30T01:03:02.341Z,99.90
2022-09-30T01:05:34.565Z,99.90
2022-09-30T01:08:06.814Z,99.90
2022-09-30T01:10:34.832Z,99.90
2022-09-30T01:13:02.849Z,99.90
2022-09-30T01:15:59.495Z,99.90
2022-09-30T01:18:40.401Z,99.90
2022-09-30T01:21:35.372Z,99.90
2022-09-30T01:24:41.645Z,99.90
2022-09-30T01:27:24.833Z,99.90
2022-09-30T01:30:14.073Z,99.90
2022-09-30T01:33:05.382Z,99.90
2022-09-30T01:35:46.678Z,99.90
2022-09-30T01:38:29.219Z,99.90
2022-09-30T01:41:07.001Z,99.90
2022-09-30T01:43:45.362Z,99.90
2022-09-30T01:46:22.829Z,99.90
2022-09-30T01:49:02.997Z,99.90
2022-09-30T01:51:40.955Z,99.90
2022-09-30T01:54:16.261Z,99.90
2022-09-30T01:56:48.364Z,99.90
2022-09-30T01:59:22.915Z,99.90
2022-09-30T02:01:55.430Z,99.90
2022-09-30T02:04:30.346Z,99.90
2022-09-30T02:07:05.051Z,99.90
2022-09-30T02:09:40.048Z,99.90
2022-09-30T02:12:12.844Z,99.90
2022-09-30T02:14:45.360Z,99.90
2022-09-30T02:17:19.741Z,99.90
2022-09-30T02:19:53.300Z,99.90
2022-09-30T02:22:27.257Z,99.90
2022-09-30T02:25:00.614Z,99.90
2022-09-30T02:27:36.191Z,99.90
2022-09-30T02:30:07.129Z,99.90
2022-09-30T02:32:41.020Z,99.90
2022-09-30T02:35:17.287Z,99.90
2022-09-30T02:37:50.367Z,99.90
2022-09-30T02:40:25.472Z,99.90
2022-09-30T02:42:53.987Z,99.90
2022-09-30T02:45:24.295Z,99.90
2022-09-30T02:48:07.323Z,99.90
2022-09-30T02:50:43.658Z,99.90
2022-09-30T02:53:25.464Z,99.90
2022-09-30T02:56:14.164Z,99.90
2022-09-30T02:58:43.324Z,99.90
2022-09-30T03:01:13.856Z,99.90
2022-09-30T03:03:46.375Z,99.90
2022-09-30T03:06:16.227Z,99.90
2022-09-30T03:08:44.489Z,99.90
2022-09-30T03:11:18.507Z,99.90
2022-09-30T03:14:11.853Z,99.90
2022-09-30T03:16:58.647Z,99.90
2022-09-30T03:19:42.477Z,99.90
2022-09-30T03:22:35.695Z,99.90
2022-09-30T03:25:19.437Z,99.90
2022-09-30T03:28:04.913Z,99.90
2022-09-30T03:30:40.860Z,99.90
2022-09-30T03:33:14.549Z,99.90
2022-09-30T03:35:50.177Z,99.90
2022-09-30T03:38:34.457Z,99.90
2022-09-30T03:41:11.282Z,99.90
2022-09-30T03:43:46.167Z,99.90
2022-09-30T03:46:23.248Z,99.90
2022-09-30T03:48:54.945Z,99.90
2022-09-30T03:51:24.872Z,99.90
2022-09-30T03:53:55.322Z,99.90
2022-09-30T03:56:28.263Z,99.90
2022-09-30T03:58:57.052Z,99.90
2022-09-30T04:01:25.667Z,99.90
2022-09-30T04:03:54.902Z,99.90
2022-09-30T04:06:25.368Z,99.90
2022-09-30T04:08:54.819Z,99.90
2022-09-30T04:11:22.829Z,99.90
2022-09-30T04:13:50.849Z,99.90
2022-09-30T04:16:18.986Z,99.90
2022-09-30T04:18:47.067Z,99.90
2022-09-30T04:21:16.917Z,99.90
2022-09-30T04:23:45.561Z,99.90
2022-09-30T04:26:17.809Z,99.90
2022-09-30T04:28:45.790Z,99.90
2022-09-30T04:31:17.092Z,99.90
2022-09-30T04:33:45.687Z,99.90
2022-09-30T04:36:13.756Z,99.90
2022-09-30T04:38:41.777Z,99.90
2022-09-30T04:41:16.049Z,99.90
2022-09-30T04:43:45.334Z,99.90
2022-09-30T04:46:13.618Z,99.90
2022-09-30T04:48:45.598Z,99.90
2022-09-30T04:51:14.080Z,99.90
2022-09-30T04:53:42.866Z,99.90
2022-09-30T04:56:12.193Z,99.90
2022-09-30T04:58:41.517Z,99.90
2022-09-30T05:01:12.383Z,99.90
2022-09-30T05:03:41.504Z,99.90
2022-09-30T05:06:09.543Z,99.90
2022-09-30T05:08:41.750Z,99.90
2022-09-30T05:11:18.455Z,99.90
2022-09-30T05:13:48.932Z,99.90
2022-09-30T05:16:18.017Z,99.90
2022-09-30T05:18:46.984Z,99.90
2022-09-30T05:21:16.883Z,99.90
2022-09-30T05:23:45.494Z,99.90
2022-09-30T05:26:14.425Z,99.90
2022-09-30T05:28:42.491Z,99.90
2022-09-30T05:31:13.653Z,99.90
2022-09-30T05:33:41.910Z,99.90
2022-09-30T05:36:13.558Z,99.90
2022-09-30T05:38:41.882Z,99.90
2022-09-30T05:41:12.127Z,99.90
2022-09-30T05:43:41.203Z,99.90
2022-09-30T05:46:10.994Z,99.90
2022-09-30T05:48:39.129Z,99.90
2022-09-30T05:51:07.777Z,99.90
2022-09-30T05:53:38.569Z,99.90
2022-09-30T05:56:07.401Z,99.90
2022-09-30T05:58:35.768Z,99.90
2022-09-30T06:01:13.165Z,99.90
2022-09-30T06:03:44.395Z,99.90
2022-09-30T06:06:12.931Z,99.90
2022-09-30T06:08:41.880Z,99.90
2022-09-30T06:11:12.728Z,99.90
2022-09-30T06:13:41.613Z,99.90
2022-09-30T06:16:11.390Z,99.90
2022-09-30T06:18:41.388Z,99.90
2022-09-30T06:21:13.590Z,99.90
2022-09-30T06:23:42.200Z,99.90
2022-09-30T06:26:13.377Z,99.90
2022-09-30T06:28:42.231Z,99.90
2022-09-30T06:31:11.197Z,99.90
2022-09-30T06:33:39.350Z,99.90
2022-09-30T06:36:07.431Z,99.90
2022-09-30T06:38:38.995Z,99.90
2022-09-30T06:41:08.052Z,99.90
2022-09-30T06:43:39.965Z,99.90
2022-09-30T06:46:21.999Z,99.90
2022-09-30T06:49:07.711Z,99.90
2022-09-30T06:51:39.008Z,99.90
2022-09-30T06:54:09.058Z,99.90
2022-09-30T06:56:37.449Z,99.90
2022-09-30T06:59:05.531Z,99.90
2022-09-30T07:01:33.630Z,99.90
2022-09-30T07:04:07.903Z,99.90
2022-09-30T07:06:36.156Z,99.90
2022-09-30T07:09:04.398Z,99.90
2022-09-30T07:11:34.039Z,99.90
2022-09-30T07:14:02.135Z,99.90
2022-09-30T07:16:31.588Z,99.90
2022-09-30T07:19:00.239Z,99.90
2022-09-30T07:21:30.126Z,99.90
2022-09-30T07:23:59.879Z,99.90
2022-09-30T07:26:29.101Z,99.90
2022-09-30T07:28:59.991Z,99.90
2022-09-30T07:31:34.294Z,99.90
2022-09-30T07:34:06.938Z,99.90
2022-09-30T07:36:36.993Z,99.90
2022-09-30T07:39:08.112Z,99.90
2022-09-30T07:41:38.765Z,99.50
2022-09-30T07:44:12.405Z,99.20
2022-09-30T07:46:40.467Z,99.50
2022-09-30T07:49:14.438Z,99.90
2022-09-30T07:51:45.400Z,99.90
2022-09-30T07:54:17.268Z,99.90
2022-09-30T07:57:08.593Z,98.60
2022-09-30T07:59:39.075Z,96.50
2022-09-30T08:02:13.913Z,96.50
2022-09-30T08:04:44.164Z,95.40
2022-09-30T08:07:15.380Z,94.20
2022-09-30T08:09:44.221Z,94.20
2022-09-30T08:12:12.355Z,93.10
2022-09-30T08:14:41.951Z,93.80
2022-09-30T08:17:09.872Z,93.30
2022-09-30T08:19:38.186Z,93.20
2022-09-30T08:22:06.358Z,93.10
2022-09-30T08:24:34.415Z,92.60
2022-09-30T08:27:02.479Z,91.60
2022-09-30T08:32:20.495Z,92.60
2022-09-30T08:34:48.546Z,93.00
2022-09-30T08:37:16.531Z,93.50
2022-09-30T08:39:46.700Z,94.10
2022-09-30T08:42:50.529Z,94.90
2022-09-30T08:45:36.902Z,96.50
2022-09-30T08:48:28.763Z,98.60
2022-09-30T08:51:10.198Z,99.70
2022-09-30T08:53:43.386Z,98.70
2022-09-30T08:56:20.408Z,97.30
2022-09-30T08:58:51.976Z,97.10
2022-09-30T09:01:26.494Z,97.40
2022-09-30T09:03:56.414Z,97.10
2022-09-30T09:06:32.488Z,94.50
2022-09-30T09:09:29.779Z,93.40
2022-09-30T09:12:11.863Z,91.60
2022-09-30T09:14:53.828Z,90.50
2022-09-30T09:17:36.261Z,89.40
2022-09-30T09:20:15.469Z,88.00
2022-09-30T09:22:44.507Z,82.90
2022-09-30T09:25:16.459Z,83.60
2022-09-30T09:27:56.035Z,86.20
2022-09-30T09:30:25.719Z,84.40
2022-09-30T09:32:57.065Z,80.80
2022-09-30T09:35:40.764Z,84.50
2022-09-30T09:38:30.447Z,83.10
2022-09-30T09:41:13.512Z,80.70
2022-09-30T09:43:53.960Z,77.20
2022-09-30T09:46:28.268Z,75.50
2022-09-30T09:49:30.952Z,78.00
2022-09-30T09:52:24.141Z,76.10
2022-09-30T09:54:56.614Z,76.50
2022-09-30T09:57:32.337Z,79.50
2022-09-30T10:00:27.701Z,78.80
2022-09-30T10:03:06.144Z,76.70
2022-09-30T10:05:39.613Z,79.00
2022-09-30T10:08:17.348Z,78.00
2022-09-30T10:10:51.761Z,76.90
2022-09-30T10:13:23.006Z,75.40
2022-09-30T10:15:53.941Z,73.40
2022-09-30T10:18:27.916Z,71.40
2022-09-30T10:20:59.942Z,70.30
2022-09-30T10:23:32.713Z,71.00
2022-09-30T10:26:05.776Z,76.60
2022-09-30T10:28:45.255Z,74.60
2022-09-30T10:31:18.558Z,69.60
2022-09-30T10:33:49.965Z,68.70
2022-09-30T10:36:20.152Z,67.60
2022-09-30T10:39:03.986Z,66.90
2022-09-30T10:41:37.405Z,71.10
2022-09-30T10:44:08.973Z,69.80
2022-09-30T10:46:40.655Z,69.00
2022-09-30T10:49:18.869Z,67.40
2022-09-30T10:51:47.699Z,65.10
2022-09-30T10:57:16.828Z,64.60
2022-09-30T10:59:49.257Z,63.00
2022-09-30T11:02:27.832Z,64.80
2022-09-30T11:05:07.216Z,68.10
2022-09-30T11:07:42.938Z,66.60
2022-09-30T11:10:29.474Z,65.30
2022-09-30T11:13:06.492Z,64.30
2022-09-30T11:15:43.590Z,66.00
2022-09-30T11:18:22.703Z,65.60
2022-09-30T11:20:56.488Z,65.70
2022-09-30T11:23:30.064Z,67.50
2022-09-30T11:26:08.115Z,66.20
2022-09-30T11:29:00.470Z,67.10
2022-09-30T11:31:36.735Z,67.90
2022-09-30T11:34:24.107Z,71.60
2022-09-30T11:37:00.684Z,75.70
2022-09-30T11:40:02.395Z,72.50
2022-09-30T11:42:39.702Z,72.90
2022-09-30T11:45:25.750Z,68.50
2022-09-30T11:48:18.439Z,71.70
2022-09-30T11:51:01.022Z,74.40
2022-09-30T11:53:43.338Z,71.10
2022-09-30T11:56:29.288Z,75.00
2022-09-30T11:59:02.334Z,76.50
2022-09-30T12:01:37.349Z,76.50
2022-09-30T12:04:10.945Z,80.70
2022-09-30T12:06:44.157Z,80.10
2022-09-30T12:09:19.647Z,82.60
2022-09-30T12:11:56.628Z,85.80
2022-09-30T12:14:32.931Z,89.60
2022-09-30T12:17:07.303Z,83.40
2022-09-30T12:19:42.464Z,85.40
2022-09-30T12:22:17.433Z,84.10
2022-09-30T12:24:46.557Z,85.50
2022-09-30T12:27:22.376Z,84.90
2022-09-30T12:30:17.705Z,85.60
2022-09-30T12:33:30.716Z,85.70
2022-09-30T12:36:25.085Z,88.40
2022-09-30T12:39:42.798Z,83.80
2022-09-30T12:42:45.771Z,85.10
2022-09-30T12:45:44.117Z,86.30
2022-09-30T12:48:17.583Z,80.90
2022-09-30T12:50:50.399Z,83.60
2022-09-30T12:53:22.803Z,86.10
2022-09-30T12:55:51.421Z,85.10
2022-09-30T12:58:30.428Z,84.60
2022-09-30T13:01:13.149Z,84.90
2022-09-30T13:03:52.423Z,83.30
2022-09-30T13:06:26.543Z,84.90
2022-09-30T13:09:25.065Z,84.70
2022-09-30T13:12:18.185Z,86.30
2022-09-30T13:14:46.198Z,86.90
2022-09-30T13:17:27.564Z,86.80
2022-09-30T13:19:57.345Z,88.10
2022-09-30T13:22:58.399Z,86.50
2022-09-30T13:25:26.595Z,87.20
2022-09-30T13:28:28.467Z,86.40
2022-09-30T13:31:20.211Z,87.30
2022-09-30T13:34:12.550Z,87.80
2022-09-30T13:36:43.370Z,87.20
2022-09-30T13:39:26.956Z,86.50
2022-09-30T13:42:13.355Z,85.10
2022-09-30T13:45:00.939Z,85.10
2022-09-30T13:47:35.172Z,85.80
2022-09-30T13:50:14.748Z,86.20
2022-09-30T13:52:44.715Z,85.30
2022-09-30T13:55:22.413Z,86.30
2022-09-30T13:58:07.779Z,87.90
2022-09-30T14:00:58.918Z,86.30
2022-09-30T14:03:57.670Z,87.30
2022-09-30T14:06:38.382Z,88.00
2022-09-30T14:09:32.620Z,85.60
2022-09-30T14:12:33.846Z,87.90
2022-09-30T14:16:01.774Z,86.00
2022-09-30T14:18:54.762Z,86.70
2022-09-30T14:21:36.033Z,85.70
2022-09-30T14:24:11.528Z,85.30
2022-09-30T14:27:17.702Z,89.10
2022-09-30T14:29:59.222Z,85.70
2022-09-30T14:32:30.943Z,83.70
2022-09-30T14:35:00.292Z,84.90
2022-09-30T14:37:33.546Z,86.40
2022-09-30T14:40:01.984Z,90.50
2022-09-30T14:42:37.477Z,85.60
2022-09-30T14:45:08.352Z,88.30
2022-09-30T14:47:40.513Z,86.90
2022-09-30T14:50:15.190Z,86.30
2022-09-30T14:52:45.900Z,90.60
2022-09-30T14:55:26.870Z,89.40
2022-09-30T14:58:18.714Z,88.20
2022-09-30T15:00:50.933Z,91.50
2022-09-30T15:03:19.077Z,90.50
2022-09-30T15:05:47.112Z,86.40
2022-09-30T15:08:21.155Z,90.00
2022-09-30T15:10:51.830Z,86.70
2022-09-30T15:13:24.337Z,85.50
2022-09-30T15:15:52.740Z,88.30
2022-09-30T15:18:45.902Z,93.10
2022-09-30T15:21:16.776Z,95.10
2022-09-30T15:23:51.609Z,96.30
2022-09-30T15:26:22.612Z,97.50
2022-09-30T15:28:52.527Z,97.90
2022-09-30T15:31:26.192Z,97.50
2022-09-30T15:34:07.635Z,97.80
2022-09-30T15:36:38.182Z,98.70
2022-09-30T15:39:07.723Z,99.30
2022-09-30T15:41:42.291Z,99.80
2022-09-30T15:44:19.953Z,99.90
2022-09-30T15:47:07.398Z,99.90
2022-09-30T15:49:47.748Z,99.90
2022-09-30T15:52:37.387Z,99.90
2022-09-30T15:55:39.154Z,99.90
2022-09-30T15:58:37.739Z,99.90
2022-09-30T16:01:18.460Z,99.90
2022-09-30T16:03:55.232Z,99.90
2022-09-30T16:06:28.479Z,99.90
2022-09-30T16:09:01.192Z,99.90
2022-09-30T16:11:34.725Z,99.90
2022-09-30T16:14:05.475Z,99.90
2022-09-30T16:16:37.969Z,99.90
2022-09-30T16:19:07.441Z,99.90
2022-09-30T16:21:45.004Z,99.90
2022-09-30T16:24:48.561Z,99.90
2022-09-30T16:27:31.471Z,99.90
2022-09-30T16:30:00.926Z,99.90
2022-09-30T16:32:33.872Z,99.90
2022-09-30T16:35:05.692Z,99.90
2022-09-30T16:37:33.934Z,99.90
2022-09-30T16:40:17.375Z,99.90
2022-09-30T16:42:45.334Z,99.90
2022-09-30T16:45:14.839Z,99.90
2022-09-30T16:47:44.817Z,99.90
2022-09-30T16:50:35.747Z,99.90
2022-09-30T16:53:03.864Z,99.90
2022-09-30T16:55:32.373Z,99.90
2022-09-30T16:58:00.909Z,99.90
2022-09-30T17:00:30.405Z,99.90
2022-09-30T17:03:00.234Z,99.90
2022-09-30T17:05:28.964Z,99.90
2022-09-30T17:07:59.679Z,99.90
2022-09-30T17:10:30.419Z,99.90
2022-09-30T17:13:00.101Z,99.90
2022-09-30T17:15:29.390Z,99.90
2022-09-30T17:17:59.334Z,99.90
2022-09-30T17:20:27.883Z,99.90
2022-09-30T17:22:55.891Z,99.90
2022-09-30T17:25:23.890Z,99.90
2022-09-30T17:27:52.167Z,99.90
2022-09-30T17:30:21.317Z,99.90
2022-09-30T17:32:49.996Z,99.90
2022-09-30T17:35:19.975Z,99.90
2022-09-30T17:37:48.001Z,99.90
2022-09-30T17:40:34.267Z,99.90
2022-09-30T17:43:14.534Z,99.90
2022-09-30T17:45:46.138Z,99.90
2022-09-30T17:48:16.577Z,99.90
2022-09-30T17:50:48.844Z,99.90
2022-09-30T17:53:18.966Z,99.90
2022-09-30T17:55:50.119Z,99.90
2022-09-30T17:58:19.134Z,99.90
2022-09-30T18:00:47.709Z,99.90
2022-09-30T18:03:15.731Z,99.90
2022-09-30T18:05:45.440Z,99.90
2022-09-30T18:08:13.703Z,99.90
2022-09-30T18:10:41.714Z,99.90
2022-09-30T18:13:11.410Z,99.90
2022-09-30T18:15:39.888Z,99.90
2022-09-30T18:18:07.983Z,99.90
2022-09-30T18:20:38.277Z,99.90
2022-09-30T18:23:07.574Z,99.90
2022-09-30T18:25:35.673Z,99.90
2022-09-30T18:28:03.897Z,99.90
2022-09-30T18:30:31.959Z,99.90
2022-09-30T18:33:00.023Z,99.90
2022-09-30T18:35:30.132Z,99.90
2022-09-30T18:37:58.115Z,99.90
2022-09-30T18:40:29.353Z,99.90
2022-09-30T18:42:59.624Z,99.90
2022-09-30T18:45:28.293Z,99.90
2022-09-30T18:47:58.095Z,99.90
2022-09-30T18:50:28.247Z,99.90
2022-09-30T18:52:57.714Z,99.90
2022-09-30T18:55:27.924Z,99.90
2022-09-30T18:57:58.850Z,99.90
2022-09-30T19:00:28.544Z,99.90
2022-09-30T19:02:56.896Z,99.90
2022-09-30T19:05:24.918Z,99.90
2022-09-30T19:07:53.518Z,99.90
2022-09-30T19:10:25.557Z,99.90
2022-09-30T19:12:54.978Z,99.90
2022-09-30T19:15:23.531Z,99.90
2022-09-30T19:17:53.567Z,99.90
2022-09-30T19:20:21.521Z,99.90
2022-09-30T19:22:52.979Z,99.90
2022-09-30T19:25:23.767Z,99.90
2022-09-30T19:27:56.893Z,99.90
2022-09-30T19:30:28.718Z,99.90
2022-09-30T19:32:59.758Z,99.90
2022-09-30T19:35:39.722Z,99.90
2022-09-30T19:38:09.657Z,99.90
2022-09-30T19:40:38.101Z,99.90
2022-09-30T19:43:08.555Z,99.90
2022-09-30T19:45:36.621Z,99.90
2022-09-30T19:48:07.434Z,99.90
2022-09-30T19:50:36.814Z,99.90
2022-09-30T19:53:04.839Z,99.90
2022-09-30T19:55:43.039Z,99.90
2022-09-30T19:58:17.204Z,99.90
2022-09-30T20:00:46.973Z,99.90
2022-09-30T20:03:16.239Z,99.90
2022-09-30T20:05:44.421Z,99.90
2022-09-30T20:08:12.787Z,99.90
2022-09-30T20:10:40.805Z,99.90
2022-09-30T20:13:08.752Z,99.90
2022-09-30T20:15:53.363Z,99.90
2022-09-30T20:18:21.651Z,99.90
2022-09-30T20:20:49.985Z,99.90
2022-09-30T20:23:19.226Z,99.90
2022-09-30T20:25:47.266Z,99.90
2022-09-30T20:28:15.466Z,99.90
2022-09-30T20:30:45.640Z,99.90
2022-09-30T20:33:16.184Z,99.90
2022-09-30T20:35:44.435Z,99.90
2022-09-30T20:38:23.256Z,99.90
2022-09-30T20:40:55.330Z,99.90
2022-09-30T20:43:23.408Z,99.90
2022-09-30T20:45:59.383Z,99.90
2022-09-30T20:48:33.562Z,99.90
2022-09-30T20:51:01.938Z,99.90
2022-09-30T20:53:29.947Z,99.90
2022-09-30T20:56:02.139Z,99.90
2022-09-30T20:58:33.638Z,99.90
2022-09-30T21:01:05.217Z,99.90
2022-09-30T21:03:36.801Z,99.90
2022-09-30T21:06:05.386Z,99.90
2022-09-30T21:08:38.826Z,99.90
2022-09-30T21:11:08.198Z,99.90
2022-09-30T21:13:38.164Z,99.90
2022-09-30T21:16:19.659Z,99.90
2022-09-30T21:18:48.301Z,99.90
2022-09-30T21:21:19.329Z,99.90
2022-09-30T21:23:49.899Z,99.90
2022-09-30T21:26:19.134Z,99.90
2022-09-30T21:28:49.647Z,99.90
2022-09-30T21:31:22.101Z,99.90
2022-09-30T21:33:55.144Z,99.90
2022-09-30T21:36:24.234Z,99.90
2022-09-30T21:38:52.985Z,99.90
2022-09-30T21:41:21.576Z,99.90
2022-09-30T21:43:49.549Z,99.90
2022-09-30T21:46:19.326Z,99.90
2022-09-30T21:48:48.835Z,99.90
2022-09-30T21:51:17.911Z,99.90
2022-09-30T21:53:46.795Z,99.90
2022-09-30T21:56:16.454Z,99.90
2022-09-30T21:58:48.891Z,99.90
2022-09-30T22:01:18.303Z,99.90
2022-09-30T22:03:46.464Z,99.90
2022-09-30T22:06:14.507Z,99.90
2022-09-30T22:08:42.475Z,99.90
2022-09-30T22:11:13.765Z,99.90
2022-09-30T22:13:44.352Z,99.90
2022-09-30T22:16:15.367Z,99.90
2022-09-30T22:18:45.003Z,99.90
2022-09-30T22:21:14.965Z,99.90
2022-09-30T22:23:43.117Z,99.90
2022-09-30T22:26:15.069Z,99.90
2022-09-30T22:28:45.750Z,99.90
2022-09-30T22:31:16.293Z,99.90
2022-09-30T22:34:03.536Z,99.90
2022-09-30T22:36:48.883Z,99.90
2022-09-30T22:39:18.152Z,99.90
2022-09-30T22:41:46.197Z,99.90
2022-09-30T22:44:16.517Z,99.90
2022-09-30T22:46:44.598Z,99.90
2022-09-30T22:49:13.970Z,99.90
2022-09-30T22:51:41.970Z,99.90
2022-09-30T22:54:10.289Z,99.90
2022-09-30T22:56:38.223Z,99.90
2022-09-30T22:59:06.825Z,99.90
2022-09-30T23:01:35.035Z,99.90
2022-09-30T23:04:03.452Z,99.90
2022-09-30T23:06:32.895Z,99.90
2022-09-30T23:09:05.415Z,99.90
2022-09-30T23:11:35.590Z,99.90
2022-09-30T23:14:04.114Z,99.90
2022-09-30T23:16:32.418Z,99.90
2022-09-30T23:19:00.782Z,99.90
2022-09-30T23:21:28.743Z,99.90
2022-09-30T23:23:58.127Z,99.90
2022-09-30T23:26:28.308Z,99.90
2022-09-30T23:28:58.870Z,99.90
2022-09-30T23:31:27.541Z,99.90
2022-09-30T23:33:58.072Z,99.90
2022-09-30T23:36:29.348Z,99.90
2022-09-30T23:39:03.360Z,99.90
2022-09-30T23:41:32.609Z,99.90
2022-09-30T23:44:01.316Z,99.90
2022-09-30T23:46:29.368Z,99.90
2022-09-30T23:48:57.575Z,99.90
2022-09-30T23:51:25.634Z,99.90
2022-09-30T23:53:53.756Z,99.90
2022-09-30T23:56:23.214Z,99.90
2022-09-30T23:58:51.475Z,99.90
